sensor_id;sensor_type;location;lat;lon;timestamp;temperature;humidity
12225;DHT22;6175;50.956;11.064;2022-11-04T00:08:56;12.20;99.90
12225;DHT22;6175;50.956;11.064;2022-11-04T00:14:09;12.20;99.90
12225;DHT22;6175;50.956;11.064;2022-11-04T00:16:36;12.20;99.90
12225;DHT22;6175;50.956;11.064;2022-11-04T00:19:21;12.10;99.90
12225;DHT22;6175;50.956;11.064;2022-11-04T00:21:50;12.20;99.90
12225;DHT22;6175;50.956;11.064;2022-11-04T00:24:34;12.10;99.90
12225;DHT22;6175;50.956;11.064;2022-11-04T00:27:20;12.20;99.90
12225;DHT22;6175;50.956;11.064;2022-11-04T00:30:07;12.20;99.90
12225;DHT22;6175;50.956;11.064;2022-11-04T00:35:19;12.10;99.90
12225;DHT22;6175;50.956;11.064;2022-11-04T00:40:15;12.20;99.90
12225;DHT22;6175;50.956;11.064;2022-11-04T00:42:43;12.20;99.90
12225;DHT22;6175;50.956;11.064;2022-11-04T00:55:02;12.10;99.90
12225;DHT22;6175;50.956;11.064;2022-11-04T01:02:24;12.10;99.90
12225;DHT22;6175;50.956;11.064;2022-11-04T01:04:51;12.00;99.90
12225;DHT22;6175;50.956;11.064;2022-11-04T01:12:13;12.00;99.90
12225;DHT22;6175;50.956;11.064;2022-11-04T01:19:35;11.90;99.90
12225;DHT22;6175;50.956;11.064;2022-11-04T01:22:02;12.00;99.90
12225;DHT22;6175;50.956;11.064;2022-11-04T01:29:25;11.90;99.90
12225;DHT22;6175;50.956;11.064;2022-11-04T01:31:52;11.90;99.90
12225;DHT22;6175;50.956;11.064;2022-11-04T01:36:46;12.00;99.90
12225;DHT22;6175;50.956;11.064;2022-11-04T01:39:13;12.00;99.90
12225;DHT22;6175;50.956;11.064;2022-11-04T01:44:47;12.10;99.90
12225;DHT22;6175;50.956;11.064;2022-11-04T01:47:17;12.20;99.90
12225;DHT22;6175;50.956;11.064;2022-11-04T01:49:48;12.20;99.90
12225;DHT22;6175;50.956;11.064;2022-11-04T01:52:20;12.20;99.90
12225;DHT22;6175;50.956;11.064;2022-11-04T01:54:49;12.10;99.90
12225;DHT22;6175;50.956;11.064;2022-11-04T01:57:22;12.10;99.90
12225;DHT22;6175;50.956;11.064;2022-11-04T01:59:52;12.10;99.90
12225;DHT22;6175;50.956;11.064;2022-11-04T02:12:08;12.00;99.90
12225;DHT22;6175;50.956;11.064;2022-11-04T02:14:54;11.90;99.90
12225;DHT22;6175;50.956;11.064;2022-11-04T02:17:35;11.90;99.90
12225;DHT22;6175;50.956;11.064;2022-11-04T02:20:22;11.80;99.90
12225;DHT22;6175;50.956;11.064;2022-11-04T02:26:19;11.80;99.90
12225;DHT22;6175;50.956;11.064;2022-11-04T02:32:13;11.70;99.90
12225;DHT22;6175;50.956;11.064;2022-11-04T02:34:51;11.60;99.90
12225;DHT22;6175;50.956;11.064;2022-11-04T02:37:28;11.60;99.90
12225;DHT22;6175;50.956;11.064;2022-11-04T02:40:05;11.60;99.90
12225;DHT22;6175;50.956;11.064;2022-11-04T02:42:38;11.50;99.90
12225;DHT22;6175;50.956;11.064;2022-11-04T02:45:13;11.50;99.90
12225;DHT22;6175;50.956;11.064;2022-11-04T02:47:45;11.50;99.90
12225;DHT22;6175;50.956;11.064;2022-11-04T02:50:19;13.00;99.90
12225;DHT22;6175;50.956;11.064;2022-11-04T02:52:54;11.40;99.90
12225;DHT22;6175;50.956;11.064;2022-11-04T02:55:25;11.40;99.90
12225;DHT22;6175;50.956;11.064;2022-11-04T02:57:55;11.40;99.90
12225;DHT22;6175;50.956;11.064;2022-11-04T03:05:24;11.40;99.90
12225;DHT22;6175;50.956;11.064;2022-11-04T03:07:55;11.40;99.90
12225;DHT22;6175;50.956;11.064;2022-11-04T03:10:30;11.40;99.90
12225;DHT22;6175;50.956;11.064;2022-11-04T03:13:03;11.40;99.90
12225;DHT22;6175;50.956;11.064;2022-11-04T03:15:33;11.40;99.90
12225;DHT22;6175;50.956;11.064;2022-11-04T03:18:12;11.40;99.90
12225;DHT22;6175;50.956;11.064;2022-11-04T03:20:44;11.40;99.90
12225;DHT22;6175;50.956;11.064;2022-11-04T03:23:12;11.40;99.90
12225;DHT22;6175;50.956;11.064;2022-11-04T03:25:42;11.40;99.90
12225;DHT22;6175;50.956;11.064;2022-11-04T03:28:23;11.40;99.90
12225;DHT22;6175;50.956;11.064;2022-11-04T03:30:54;11.40;99.90
12225;DHT22;6175;50.956;11.064;2022-11-04T03:33:27;11.40;99.90
12225;DHT22;6175;50.956;11.064;2022-11-04T03:40:55;11.50;99.90
12225;DHT22;6175;50.956;11.064;2022-11-04T03:43:25;11.50;99.90
12225;DHT22;6175;50.956;11.064;2022-11-04T03:45:53;11.50;99.90
12225;DHT22;6175;50.956;11.064;2022-11-04T03:48:21;11.50;99.90
12225;DHT22;6175;50.956;11.064;2022-11-04T03:53:20;11.50;99.90
12225;DHT22;6175;50.956;11.064;2022-11-04T03:55:59;11.50;99.90
12225;DHT22;6175;50.956;11.064;2022-11-04T03:58:37;11.50;99.90
12225;DHT22;6175;50.956;11.064;2022-11-04T04:01:18;11.40;99.90
12225;DHT22;6175;50.956;11.064;2022-11-04T04:03:53;11.40;99.90
12225;DHT22;6175;50.956;11.064;2022-11-04T04:06:25;11.50;99.90
12225;DHT22;6175;50.956;11.064;2022-11-04T04:08:56;11.40;99.90
12225;DHT22;6175;50.956;11.064;2022-11-04T04:11:34;11.40;99.90
12225;DHT22;6175;50.956;11.064;2022-11-04T04:16:33;11.40;99.90
12225;DHT22;6175;50.956;11.064;2022-11-04T04:19:04;11.40;99.90
12225;DHT22;6175;50.956;11.064;2022-11-04T04:21:48;11.30;99.90
12225;DHT22;6175;50.956;11.064;2022-11-04T04:24:18;11.30;99.90
12225;DHT22;6175;50.956;11.064;2022-11-04T04:27:03;11.30;99.90
12225;DHT22;6175;50.956;11.064;2022-11-04T04:29:49;11.30;99.90
12225;DHT22;6175;50.956;11.064;2022-11-04T04:32:17;11.20;99.90
12225;DHT22;6175;50.956;11.064;2022-11-04T04:37:18;11.20;99.90
12225;DHT22;6175;50.956;11.064;2022-11-04T04:39:49;11.20;99.90
12225;DHT22;6175;50.956;11.064;2022-11-04T04:42:35;11.20;99.90
12225;DHT22;6175;50.956;11.064;2022-11-04T04:45:23;11.10;99.90
12225;DHT22;6175;50.956;11.064;2022-11-04T04:47:51;11.10;99.90
12225;DHT22;6175;50.956;11.064;2022-11-04T04:50:19;11.10;99.90
12225;DHT22;6175;50.956;11.064;2022-11-04T04:55:17;11.00;99.90
12225;DHT22;6175;50.956;11.064;2022-11-04T05:05:08;10.80;99.90
12225;DHT22;6175;50.956;11.064;2022-11-04T05:12:33;10.70;99.90
12225;DHT22;6175;50.956;11.064;2022-11-04T05:17:42;10.60;99.90
12225;DHT22;6175;50.956;11.064;2022-11-04T05:20:10;10.50;99.90
12225;DHT22;6175;50.956;11.064;2022-11-04T05:30:00;10.40;99.90
12225;DHT22;6175;50.956;11.064;2022-11-04T05:32:28;10.30;99.90
12225;DHT22;6175;50.956;11.064;2022-11-04T05:34:55;10.40;99.90
12225;DHT22;6175;50.956;11.064;2022-11-04T05:39:50;10.30;99.90
12225;DHT22;6175;50.956;11.064;2022-11-04T05:44:45;10.30;99.90
12225;DHT22;6175;50.956;11.064;2022-11-04T05:54:36;10.20;99.90
12225;DHT22;6175;50.956;11.064;2022-11-04T05:59:31;10.20;99.90
12225;DHT22;6175;50.956;11.064;2022-11-04T06:01:58;10.30;99.90
12225;DHT22;6175;50.956;11.064;2022-11-04T06:04:25;10.30;99.90
12225;DHT22;6175;50.956;11.064;2022-11-04T06:12:04;10.30;99.90
12225;DHT22;6175;50.956;11.064;2022-11-04T06:16:59;10.30;99.90
12225;DHT22;6175;50.956;11.064;2022-11-04T06:21:55;10.30;99.90
12225;DHT22;6175;50.956;11.064;2022-11-04T06:34:13;10.20;99.90
12225;DHT22;6175;50.956;11.064;2022-11-04T06:41:34;10.00;99.90
12225;DHT22;6175;50.956;11.064;2022-11-04T06:46:32;10.00;99.90
12225;DHT22;6175;50.956;11.064;2022-11-04T06:49:01;10.00;99.90
12225;DHT22;6175;50.956;11.064;2022-11-04T06:56:23;10.10;99.90
12225;DHT22;6175;50.956;11.064;2022-11-04T06:58:51;10.10;99.90
12225;DHT22;6175;50.956;11.064;2022-11-04T07:01:20;10.10;99.90
12225;DHT22;6175;50.956;11.064;2022-11-04T07:06:17;10.20;99.90
12225;DHT22;6175;50.956;11.064;2022-11-04T07:08:45;10.20;99.90
12225;DHT22;6175;50.956;11.064;2022-11-04T07:13:39;10.20;99.90
12225;DHT22;6175;50.956;11.064;2022-11-04T07:16:07;10.20;99.90
12225;DHT22;6175;50.956;11.064;2022-11-04T07:18:35;10.20;99.90
12225;DHT22;6175;50.956;11.064;2022-11-04T07:21:03;10.10;99.90
12225;DHT22;6175;50.956;11.064;2022-11-04T07:23:31;10.10;99.90
12225;DHT22;6175;50.956;11.064;2022-11-04T07:25:59;10.20;99.90
12225;DHT22;6175;50.956;11.064;2022-11-04T07:33:23;9.20;99.90
12225;DHT22;6175;50.956;11.064;2022-11-04T07:43:13;10.20;99.90
12225;DHT22;6175;50.956;11.064;2022-11-04T07:48:08;10.10;99.90
12225;DHT22;6175;50.956;11.064;2022-11-04T07:50:37;10.10;99.90
12225;DHT22;6175;50.956;11.064;2022-11-04T07:55:31;10.10;99.90
12225;DHT22;6175;50.956;11.064;2022-11-04T07:58:00;10.00;99.90
12225;DHT22;6175;50.956;11.064;2022-11-04T08:15:14;10.00;99.90
12225;DHT22;6175;50.956;11.064;2022-11-04T08:22:37;10.10;99.90
12225;DHT22;6175;50.956;11.064;2022-11-04T08:25:04;9.90;99.90
12225;DHT22;6175;50.956;11.064;2022-11-04T08:29:58;10.10;99.90
12225;DHT22;6175;50.956;11.064;2022-11-04T08:37:21;10.20;99.90
12225;DHT22;6175;50.956;11.064;2022-11-04T08:47:10;10.30;99.90
12225;DHT22;6175;50.956;11.064;2022-11-04T08:52:06;10.30;99.90
12225;DHT22;6175;50.956;11.064;2022-11-04T09:01:57;10.60;99.90
12225;DHT22;6175;50.956;11.064;2022-11-04T09:09:20;10.70;99.90
12225;DHT22;6175;50.956;11.064;2022-11-04T09:16:43;10.70;99.90
12225;DHT22;6175;50.956;11.064;2022-11-04T09:19:10;10.70;99.90
12225;DHT22;6175;50.956;11.064;2022-11-04T09:31:31;10.90;99.90
12225;DHT22;6175;50.956;11.064;2022-11-04T09:33:58;10.90;99.90
12225;DHT22;6175;50.956;11.064;2022-11-04T09:38:53;10.90;99.90
12225;DHT22;6175;50.956;11.064;2022-11-04T09:44:23;10.70;99.90
12225;DHT22;6175;50.956;11.064;2022-11-04T09:46:56;10.80;99.90
12225;DHT22;6175;50.956;11.064;2022-11-04T09:49:26;10.80;99.90
12225;DHT22;6175;50.956;11.064;2022-11-04T09:51:55;10.80;99.90
12225;DHT22;6175;50.956;11.064;2022-11-04T09:54:24;10.80;99.90
12225;DHT22;6175;50.956;11.064;2022-11-04T09:56:56;10.70;99.90
12225;DHT22;6175;50.956;11.064;2022-11-04T09:59:27;10.70;99.90
12225;DHT22;6175;50.956;11.064;2022-11-04T10:02:04;10.70;99.90
12225;DHT22;6175;50.956;11.064;2022-11-04T10:04:47;10.70;99.90
12225;DHT22;6175;50.956;11.064;2022-11-04T10:07:27;10.70;99.90
12225;DHT22;6175;50.956;11.064;2022-11-04T10:10:07;10.70;99.90
12225;DHT22;6175;50.956;11.064;2022-11-04T10:12:56;10.70;99.90
12225;DHT22;6175;50.956;11.064;2022-11-04T10:15:40;10.60;99.90
12225;DHT22;6175;50.956;11.064;2022-11-04T10:18:22;10.70;99.90
12225;DHT22;6175;50.956;11.064;2022-11-04T10:20:57;10.70;99.90
12225;DHT22;6175;50.956;11.064;2022-11-04T10:23:31;10.70;99.90
12225;DHT22;6175;50.956;11.064;2022-11-04T10:26:05;10.70;99.90
12225;DHT22;6175;50.956;11.064;2022-11-04T10:28:40;10.70;99.90
12225;DHT22;6175;50.956;11.064;2022-11-04T10:31:11;10.70;99.90
12225;DHT22;6175;50.956;11.064;2022-11-04T10:33:42;10.70;99.90
12225;DHT22;6175;50.956;11.064;2022-11-04T10:36:11;10.70;99.90
12225;DHT22;6175;50.956;11.064;2022-11-04T10:38:41;10.70;99.90
12225;DHT22;6175;50.956;11.064;2022-11-04T10:41:22;10.80;99.90
12225;DHT22;6175;50.956;11.064;2022-11-04T10:43:55;10.80;99.90
12225;DHT22;6175;50.956;11.064;2022-11-04T10:46:36;10.80;99.90
12225;DHT22;6175;50.956;11.064;2022-11-04T10:49:19;10.80;99.90
12225;DHT22;6175;50.956;11.064;2022-11-04T10:51:50;10.70;99.90
12225;DHT22;6175;50.956;11.064;2022-11-04T10:56:47;10.80;99.90
12225;DHT22;6175;50.956;11.064;2022-11-04T10:59:22;10.90;99.90
12225;DHT22;6175;50.956;11.064;2022-11-04T11:01:50;10.90;99.90
12225;DHT22;6175;50.956;11.064;2022-11-04T11:04:27;10.90;99.90
12225;DHT22;6175;50.956;11.064;2022-11-04T11:06:56;11.00;99.90
12225;DHT22;6175;50.956;11.064;2022-11-04T11:09:26;11.00;99.90
12225;DHT22;6175;50.956;11.064;2022-11-04T11:11:56;11.00;99.90
12225;DHT22;6175;50.956;11.064;2022-11-04T11:14:34;11.00;99.90
12225;DHT22;6175;50.956;11.064;2022-11-04T11:17:22;11.00;99.90
12225;DHT22;6175;50.956;11.064;2022-11-04T11:19:54;11.00;99.90
12225;DHT22;6175;50.956;11.064;2022-11-04T11:22:32;11.10;99.90
12225;DHT22;6175;50.956;11.064;2022-11-04T11:25:26;11.10;99.90
12225;DHT22;6175;50.956;11.064;2022-11-04T11:27:55;11.20;99.90
12225;DHT22;6175;50.956;11.064;2022-11-04T11:30:27;11.20;99.90
12225;DHT22;6175;50.956;11.064;2022-11-04T11:32:59;11.20;99.90
12225;DHT22;6175;50.956;11.064;2022-11-04T11:35:31;11.30;99.90
12225;DHT22;6175;50.956;11.064;2022-11-04T11:38:00;11.40;99.90
12225;DHT22;6175;50.956;11.064;2022-11-04T11:40:34;11.50;99.90
12225;DHT22;6175;50.956;11.064;2022-11-04T11:43:03;11.60;99.90
12225;DHT22;6175;50.956;11.064;2022-11-04T11:45:32;11.70;99.90
12225;DHT22;6175;50.956;11.064;2022-11-04T11:50:27;11.80;99.90
12225;DHT22;6175;50.956;11.064;2022-11-04T11:53:14;11.70;99.90
12225;DHT22;6175;50.956;11.064;2022-11-04T11:55:45;11.60;99.90
12225;DHT22;6175;50.956;11.064;2022-11-04T11:58:21;11.60;99.90
12225;DHT22;6175;50.956;11.064;2022-11-04T12:00:53;11.60;99.90
12225;DHT22;6175;50.956;11.064;2022-11-04T12:03:29;11.60;99.90
12225;DHT22;6175;50.956;11.064;2022-11-04T12:06:17;11.70;99.90
12225;DHT22;6175;50.956;11.064;2022-11-04T12:09:01;11.70;99.90
12225;DHT22;6175;50.956;11.064;2022-11-04T12:11:38;11.70;99.90
12225;DHT22;6175;50.956;11.064;2022-11-04T12:14:14;11.70;99.90
12225;DHT22;6175;50.956;11.064;2022-11-04T12:16:52;11.80;99.90
12225;DHT22;6175;50.956;11.064;2022-11-04T12:19:34;11.80;99.90
12225;DHT22;6175;50.956;11.064;2022-11-04T12:22:11;11.80;99.90
12225;DHT22;6175;50.956;11.064;2022-11-04T12:24:47;11.80;99.90
12225;DHT22;6175;50.956;11.064;2022-11-04T12:27:25;11.70;99.90
12225;DHT22;6175;50.956;11.064;2022-11-04T12:30:03;11.90;99.90
12225;DHT22;6175;50.956;11.064;2022-11-04T12:32:40;11.90;99.90
12225;DHT22;6175;50.956;11.064;2022-11-04T12:35:29;11.90;99.90
12225;DHT22;6175;50.956;11.064;2022-11-04T12:38:10;11.70;99.90
12225;DHT22;6175;50.956;11.064;2022-11-04T12:40:44;11.90;99.90
12225;DHT22;6175;50.956;11.064;2022-11-04T12:43:20;11.90;99.90
12225;DHT22;6175;50.956;11.064;2022-11-04T12:45:58;11.80;99.90
12225;DHT22;6175;50.956;11.064;2022-11-04T12:48:47;11.80;99.90
12225;DHT22;6175;50.956;11.064;2022-11-04T12:51:26;11.80;99.90
12225;DHT22;6175;50.956;11.064;2022-11-04T12:54:04;11.80;99.90
12225;DHT22;6175;50.956;11.064;2022-11-04T12:56:36;11.90;99.90
12225;DHT22;6175;50.956;11.064;2022-11-04T12:59:24;11.90;99.90
12225;DHT22;6175;50.956;11.064;2022-11-04T13:01:58;12.00;99.90
12225;DHT22;6175;50.956;11.064;2022-11-04T13:04:33;12.10;99.90
12225;DHT22;6175;50.956;11.064;2022-11-04T13:07:06;12.10;99.90
12225;DHT22;6175;50.956;11.064;2022-11-04T13:09:37;12.10;99.90
12225;DHT22;6175;50.956;11.064;2022-11-04T13:12:10;12.20;99.90
12225;DHT22;6175;50.956;11.064;2022-11-04T13:14:42;12.20;99.90
12225;DHT22;6175;50.956;11.064;2022-11-04T13:17:15;12.30;99.90
12225;DHT22;6175;50.956;11.064;2022-11-04T13:19:47;12.30;99.90
12225;DHT22;6175;50.956;11.064;2022-11-04T13:22:19;12.30;99.90
12225;DHT22;6175;50.956;11.064;2022-11-04T13:24:50;12.40;99.90
12225;DHT22;6175;50.956;11.064;2022-11-04T13:27:21;12.40;99.90
12225;DHT22;6175;50.956;11.064;2022-11-04T13:29:52;12.20;99.90
12225;DHT22;6175;50.956;11.064;2022-11-04T13:32:30;13.40;99.90
12225;DHT22;6175;50.956;11.064;2022-11-04T13:35:07;12.00;99.90
12225;DHT22;6175;50.956;11.064;2022-11-04T13:37:39;11.90;99.90
12225;DHT22;6175;50.956;11.064;2022-11-04T13:40:14;11.90;99.90
12225;DHT22;6175;50.956;11.064;2022-11-04T13:43:07;11.90;99.90
12225;DHT22;6175;50.956;11.064;2022-11-04T13:48:26;11.90;99.90
12225;DHT22;6175;50.956;11.064;2022-11-04T13:50:59;11.90;99.90
12225;DHT22;6175;50.956;11.064;2022-11-04T13:53:41;11.90;99.90
12225;DHT22;6175;50.956;11.064;2022-11-04T13:58:36;11.90;99.90
12225;DHT22;6175;50.956;11.064;2022-11-04T14:01:09;11.90;99.90
12225;DHT22;6175;50.956;11.064;2022-11-04T14:03:50;11.90;99.90
12225;DHT22;6175;50.956;11.064;2022-11-04T14:06:47;12.00;99.90
12225;DHT22;6175;50.956;11.064;2022-11-04T14:12:33;11.90;99.90
12225;DHT22;6175;50.956;11.064;2022-11-04T14:15:10;11.90;99.90
12225;DHT22;6175;50.956;11.064;2022-11-04T14:17:57;11.80;99.90
12225;DHT22;6175;50.956;11.064;2022-11-04T14:20:26;11.80;99.90
12225;DHT22;6175;50.956;11.064;2022-11-04T14:22:57;11.80;99.90
12225;DHT22;6175;50.956;11.064;2022-11-04T14:25:29;11.70;99.90
12225;DHT22;6175;50.956;11.064;2022-11-04T14:27:59;11.80;99.90
12225;DHT22;6175;50.956;11.064;2022-11-04T14:30:35;11.80;99.90
12225;DHT22;6175;50.956;11.064;2022-11-04T14:33:05;11.70;99.90
12225;DHT22;6175;50.956;11.064;2022-11-04T14:35:33;11.70;99.90
12225;DHT22;6175;50.956;11.064;2022-11-04T14:38:06;11.70;99.90
12225;DHT22;6175;50.956;11.064;2022-11-04T14:40:48;11.70;99.90
12225;DHT22;6175;50.956;11.064;2022-11-04T14:43:29;11.50;99.90
12225;DHT22;6175;50.956;11.064;2022-11-04T14:45:58;11.60;99.90
12225;DHT22;6175;50.956;11.064;2022-11-04T14:48:26;11.50;99.90
12225;DHT22;6175;50.956;11.064;2022-11-04T14:50:55;11.50;99.90
12225;DHT22;6175;50.956;11.064;2022-11-04T14:53:27;11.50;99.90
12225;DHT22;6175;50.956;11.064;2022-11-04T14:56:03;11.40;99.90
12225;DHT22;6175;50.956;11.064;2022-11-04T15:00:58;11.40;99.90
12225;DHT22;6175;50.956;11.064;2022-11-04T15:03:28;11.30;99.90
12225;DHT22;6175;50.956;11.064;2022-11-04T15:05:59;11.30;99.90
12225;DHT22;6175;50.956;11.064;2022-11-04T15:08:32;11.30;99.90
12225;DHT22;6175;50.956;11.064;2022-11-04T15:11:02;11.30;99.90
12225;DHT22;6175;50.956;11.064;2022-11-04T15:13:32;11.20;99.90
12225;DHT22;6175;50.956;11.064;2022-11-04T15:16:08;11.20;99.90
12225;DHT22;6175;50.956;11.064;2022-11-04T15:18:37;11.10;99.90
12225;DHT22;6175;50.956;11.064;2022-11-04T15:21:06;11.10;99.90
12225;DHT22;6175;50.956;11.064;2022-11-04T15:23:36;11.00;99.90
12225;DHT22;6175;50.956;11.064;2022-11-04T15:26:05;11.00;99.90
12225;DHT22;6175;50.956;11.064;2022-11-04T15:28:35;10.90;99.90
12225;DHT22;6175;50.956;11.064;2022-11-04T15:31:14;10.80;99.90
12225;DHT22;6175;50.956;11.064;2022-11-04T15:33:44;10.70;99.90
12225;DHT22;6175;50.956;11.064;2022-11-04T15:36:15;10.70;99.90
12225;DHT22;6175;50.956;11.064;2022-11-04T15:38:48;10.60;99.90
12225;DHT22;6175;50.956;11.064;2022-11-04T15:41:19;10.50;99.90
12225;DHT22;6175;50.956;11.064;2022-11-04T15:44:12;10.40;99.90
12225;DHT22;6175;50.956;11.064;2022-11-04T15:49:20;10.30;99.90
12225;DHT22;6175;50.956;11.064;2022-11-04T15:51:49;10.30;99.90
12225;DHT22;6175;50.956;11.064;2022-11-04T15:54:21;10.20;99.90
12225;DHT22;6175;50.956;11.064;2022-11-04T15:56:52;10.20;99.90
12225;DHT22;6175;50.956;11.064;2022-11-04T15:59:22;10.10;99.90
12225;DHT22;6175;50.956;11.064;2022-11-04T16:01:51;10.00;99.90
12225;DHT22;6175;50.956;11.064;2022-11-04T16:04:21;10.00;99.90
12225;DHT22;6175;50.956;11.064;2022-11-04T16:07:04;9.90;99.90
12225;DHT22;6175;50.956;11.064;2022-11-04T16:09:44;9.80;99.90
12225;DHT22;6175;50.956;11.064;2022-11-04T16:12:13;9.70;99.90
12225;DHT22;6175;50.956;11.064;2022-11-04T16:14:48;9.70;99.90
12225;DHT22;6175;50.956;11.064;2022-11-04T16:17:17;9.60;99.90
12225;DHT22;6175;50.956;11.064;2022-11-04T16:19:46;9.60;99.90
12225;DHT22;6175;50.956;11.064;2022-11-04T16:22:18;9.50;99.90
12225;DHT22;6175;50.956;11.064;2022-11-04T16:24:49;9.50;99.90
12225;DHT22;6175;50.956;11.064;2022-11-04T16:27:19;9.40;99.90
12225;DHT22;6175;50.956;11.064;2022-11-04T16:29:52;9.40;99.90
12225;DHT22;6175;50.956;11.064;2022-11-04T16:32:25;9.40;99.90
12225;DHT22;6175;50.956;11.064;2022-11-04T16:34:55;9.40;99.90
12225;DHT22;6175;50.956;11.064;2022-11-04T16:37:22;9.30;99.90
12225;DHT22;6175;50.956;11.064;2022-11-04T16:39:53;6.00;99.90
12225;DHT22;6175;50.956;11.064;2022-11-04T16:44:50;9.30;99.90
12225;DHT22;6175;50.956;11.064;2022-11-04T16:47:18;9.30;99.90
12225;DHT22;6175;50.956;11.064;2022-11-04T16:49:45;9.30;99.90
12225;DHT22;6175;50.956;11.064;2022-11-04T16:52:14;9.10;99.90
12225;DHT22;6175;50.956;11.064;2022-11-04T16:54:46;9.20;99.90
12225;DHT22;6175;50.956;11.064;2022-11-04T16:57:15;9.10;99.90
12225;DHT22;6175;50.956;11.064;2022-11-04T17:02:27;9.00;99.90
12225;DHT22;6175;50.956;11.064;2022-11-04T17:17:13;8.90;99.90
12225;DHT22;6175;50.956;11.064;2022-11-04T17:19:41;8.90;99.90
12225;DHT22;6175;50.956;11.064;2022-11-04T17:22:09;8.80;99.90
12225;DHT22;6175;50.956;11.064;2022-11-04T17:24:37;8.80;99.90
12225;DHT22;6175;50.956;11.064;2022-11-04T17:29:32;8.80;99.90
12225;DHT22;6175;50.956;11.064;2022-11-04T17:32:01;8.80;99.90
12225;DHT22;6175;50.956;11.064;2022-11-04T17:34:28;8.80;99.90
12225;DHT22;6175;50.956;11.064;2022-11-04T17:36:55;8.60;99.90
12225;DHT22;6175;50.956;11.064;2022-11-04T17:41:49;8.70;99.90
12225;DHT22;6175;50.956;11.064;2022-11-04T17:44:35;8.70;99.90
12225;DHT22;6175;50.956;11.064;2022-11-04T17:47:02;8.60;99.90
12225;DHT22;6175;50.956;11.064;2022-11-04T17:51:57;8.60;99.90
12225;DHT22;6175;50.956;11.064;2022-11-04T17:54:27;8.50;99.90
12225;DHT22;6175;50.956;11.064;2022-11-04T17:59:21;8.50;99.90
12225;DHT22;6175;50.956;11.064;2022-11-04T18:04:19;8.50;99.90
12225;DHT22;6175;50.956;11.064;2022-11-04T18:09:14;8.50;99.90
12225;DHT22;6175;50.956;11.064;2022-11-04T18:11:43;8.50;99.90
12225;DHT22;6175;50.956;11.064;2022-11-04T18:14:28;8.60;99.90
12225;DHT22;6175;50.956;11.064;2022-11-04T18:16:56;8.60;99.90
12225;DHT22;6175;50.956;11.064;2022-11-04T18:19:24;8.50;99.90
12225;DHT22;6175;50.956;11.064;2022-11-04T18:21:51;8.50;99.90
12225;DHT22;6175;50.956;11.064;2022-11-04T18:26:45;8.50;99.90
12225;DHT22;6175;50.956;11.064;2022-11-04T18:31:40;8.50;99.90
12225;DHT22;6175;50.956;11.064;2022-11-04T18:34:12;8.50;99.90
12225;DHT22;6175;50.956;11.064;2022-11-04T18:39:09;8.50;99.90
12225;DHT22;6175;50.956;11.064;2022-11-04T18:41:37;8.40;99.90
12225;DHT22;6175;50.956;11.064;2022-11-04T18:46:33;8.40;99.90
12225;DHT22;6175;50.956;11.064;2022-11-04T18:49:00;8.40;99.90
12225;DHT22;6175;50.956;11.064;2022-11-04T18:53:55;8.40;99.90
12225;DHT22;6175;50.956;11.064;2022-11-04T18:58:50;8.40;99.90
12225;DHT22;6175;50.956;11.064;2022-11-04T19:01:18;8.40;99.90
12225;DHT22;6175;50.956;11.064;2022-11-04T19:03:47;8.40;99.90
12225;DHT22;6175;50.956;11.064;2022-11-04T19:06:16;8.40;99.90
12225;DHT22;6175;50.956;11.064;2022-11-04T19:08:45;8.50;99.90
12225;DHT22;6175;50.956;11.064;2022-11-04T19:11:14;8.40;99.90
12225;DHT22;6175;50.956;11.064;2022-11-04T19:13:42;8.60;99.90
12225;DHT22;6175;50.956;11.064;2022-11-04T19:16:11;8.60;99.90
12225;DHT22;6175;50.956;11.064;2022-11-04T19:18:38;8.60;99.90
12225;DHT22;6175;50.956;11.064;2022-11-04T19:21:07;8.60;99.90
12225;DHT22;6175;50.956;11.064;2022-11-04T19:23:35;8.70;99.90
12225;DHT22;6175;50.956;11.064;2022-11-04T19:26:08;8.70;99.90
12225;DHT22;6175;50.956;11.064;2022-11-04T19:28:37;8.80;99.90
12225;DHT22;6175;50.956;11.064;2022-11-04T19:40:53;9.00;99.90
12225;DHT22;6175;50.956;11.064;2022-11-04T19:45:49;9.00;99.90
12225;DHT22;6175;50.956;11.064;2022-11-04T19:50:45;9.10;99.90
12225;DHT22;6175;50.956;11.064;2022-11-04T19:53:13;9.00;99.90
12225;DHT22;6175;50.956;11.064;2022-11-04T19:55:47;9.20;99.90
12225;DHT22;6175;50.956;11.064;2022-11-04T20:05:39;9.20;99.90
12225;DHT22;6175;50.956;11.064;2022-11-04T20:08:08;9.10;99.90
12225;DHT22;6175;50.956;11.064;2022-11-04T20:10:37;9.20;99.90
12225;DHT22;6175;50.956;11.064;2022-11-04T20:16:11;9.10;99.90
12225;DHT22;6175;50.956;11.064;2022-11-04T20:21:06;9.20;99.90
12225;DHT22;6175;50.956;11.064;2022-11-04T20:28:31;9.10;99.90
12225;DHT22;6175;50.956;11.064;2022-11-04T20:30:58;9.10;99.90
12225;DHT22;6175;50.956;11.064;2022-11-04T20:35:54;9.10;99.90
12225;DHT22;6175;50.956;11.064;2022-11-04T20:38:21;6.30;99.90
12225;DHT22;6175;50.956;11.064;2022-11-04T20:48:09;9.10;99.90
12225;DHT22;6175;50.956;11.064;2022-11-04T20:50:38;9.10;99.90
12225;DHT22;6175;50.956;11.064;2022-11-04T20:57:59;9.10;99.90
12225;DHT22;6175;50.956;11.064;2022-11-04T21:00:26;9.20;99.90
12225;DHT22;6175;50.956;11.064;2022-11-04T21:02:53;9.20;99.90
12225;DHT22;6175;50.956;11.064;2022-11-04T21:05:20;9.20;99.90
12225;DHT22;6175;50.956;11.064;2022-11-04T21:07:48;9.20;99.90
12225;DHT22;6175;50.956;11.064;2022-11-04T21:17:57;9.20;99.90
12225;DHT22;6175;50.956;11.064;2022-11-04T21:22:53;9.30;99.90
12225;DHT22;6175;50.956;11.064;2022-11-04T21:30:14;9.20;99.90
12225;DHT22;6175;50.956;11.064;2022-11-04T21:35:09;9.20;99.90
12225;DHT22;6175;50.956;11.064;2022-11-04T21:40:05;9.20;99.90
12225;DHT22;6175;50.956;11.064;2022-11-04T21:49:54;9.20;99.90
12225;DHT22;6175;50.956;11.064;2022-11-04T21:54:48;9.20;99.90
12225;DHT22;6175;50.956;11.064;2022-11-04T22:12:00;9.10;99.90
12225;DHT22;6175;50.956;11.064;2022-11-04T22:14:28;9.20;99.90
12225;DHT22;6175;50.956;11.064;2022-11-04T22:26:44;9.10;99.90
12225;DHT22;6175;50.956;11.064;2022-11-04T22:31:41;9.10;99.90
12225;DHT22;6175;50.956;11.064;2022-11-04T22:39:04;9.30;99.90
12225;DHT22;6175;50.956;11.064;2022-11-04T22:41:31;9.10;99.90
12225;DHT22;6175;50.956;11.064;2022-11-04T22:44:00;9.20;99.90
12225;DHT22;6175;50.956;11.064;2022-11-04T22:46:28;9.20;99.90
12225;DHT22;6175;50.956;11.064;2022-11-04T22:48:57;9.20;99.90
12225;DHT22;6175;50.956;11.064;2022-11-04T22:51:24;9.20;99.90
12225;DHT22;6175;50.956;11.064;2022-11-04T22:53:52;9.10;99.90
12225;DHT22;6175;50.956;11.064;2022-11-04T22:56:20;9.10;99.90
12225;DHT22;6175;50.956;11.064;2022-11-04T22:58:48;9.20;99.90
12225;DHT22;6175;50.956;11.064;2022-11-04T23:01:17;9.10;99.90
12225;DHT22;6175;50.956;11.064;2022-11-04T23:06:12;9.10;99.90
12225;DHT22;6175;50.956;11.064;2022-11-04T23:08:40;9.00;99.90